sensor_id;sensor_type;location;lat;lon;timestamp;P1;durP1;ratioP1;P2;durP2;ratioP2
33844;SDS011;20145;43.118;25.694;2023-07-28T00:00:21;3.47;;;1.52;;
33844;SDS011;20145;43.118;25.694;2023-07-28T00:02:46;1.98;;;1.50;;
33844;SDS011;20145;43.118;25.694;2023-07-28T00:05:12;1.73;;;1.20;;
33844;SDS011;20145;43.118;25.694;2023-07-28T00:07:37;3.75;;;1.50;;
33844;SDS011;20145;43.118;25.694;2023-07-28T00:10:03;2.40;;;1.70;;
33844;SDS011;20145;43.118;25.694;2023-07-28T00:12:29;2.33;;;1.20;;
33844;SDS011;20145;43.118;25.694;2023-07-28T00:14:54;2.45;;;1.60;;
33844;SDS011;20145;43.118;25.694;2023-07-28T00:17:20;3.72;;;1.55;;
33844;SDS011;20145;43.118;25.694;2023-07-28T00:19:47;3.70;;;1.40;;
33844;SDS011;20145;43.118;25.694;2023-07-28T00:22:12;5.80;;;1.45;;
33844;SDS011;20145;43.118;25.694;2023-07-28T00:24:38;2.10;;;1.50;;
33844;SDS011;20145;43.118;25.694;2023-07-28T00:27:04;1.48;;;1.25;;
33844;SDS011;20145;43.118;25.694;2023-07-28T00:29:30;2.85;;;1.50;;
33844;SDS011;20145;43.118;25.694;2023-07-28T00:31:55;2.75;;;1.60;;
33844;SDS011;20145;43.118;25.694;2023-07-28T00:34:21;4.25;;;1.65;;
33844;SDS011;20145;43.118;25.694;2023-07-28T00:36:46;4.20;;;1.40;;
33844;SDS011;20145;43.118;25.694;2023-07-28T00:39:12;2.65;;;1.30;;
33844;SDS011;20145;43.118;25.694;2023-07-28T00:41:38;7.82;;;1.67;;
33844;SDS011;20145;43.118;25.694;2023-07-28T00:44:03;2.50;;;1.75;;
33844;SDS011;20145;43.118;25.694;2023-07-28T00:46:29;3.13;;;1.73;;
33844;SDS011;20145;43.118;25.694;2023-07-28T00:48:55;2.03;;;1.48;;
33844;SDS011;20145;43.118;25.694;2023-07-28T00:51:21;5.07;;;1.25;;
33844;SDS011;20145;43.118;25.694;2023-07-28T00:53:47;2.20;;;1.55;;
33844;SDS011;20145;43.118;25.694;2023-07-28T00:56:13;1.67;;;1.55;;
33844;SDS011;20145;43.118;25.694;2023-07-28T00:58:39;4.45;;;2.08;;
33844;SDS011;20145;43.118;25.694;2023-07-28T01:01:04;4.25;;;1.70;;
33844;SDS011;20145;43.118;25.694;2023-07-28T01:03:30;1.83;;;1.63;;
33844;SDS011;20145;43.118;25.694;2023-07-28T01:08:38;1.55;;;1.45;;
33844;SDS011;20145;43.118;25.694;2023-07-28T01:11:11;2.30;;;1.67;;
33844;SDS011;20145;43.118;25.694;2023-07-28T01:13:37;1.52;;;1.17;;
33844;SDS011;20145;43.118;25.694;2023-07-28T01:16:02;2.28;;;1.80;;
33844;SDS011;20145;43.118;25.694;2023-07-28T01:18:31;4.68;;;1.80;;
33844;SDS011;20145;43.118;25.694;2023-07-28T01:20:57;2.70;;;1.65;;
33844;SDS011;20145;43.118;25.694;2023-07-28T01:23:32;1.53;;;1.43;;
33844;SDS011;20145;43.118;25.694;2023-07-28T01:26:36;1.70;;;1.55;;
33844;SDS011;20145;43.118;25.694;2023-07-28T01:29:03;2.50;;;1.83;;
33844;SDS011;20145;43.118;25.694;2023-07-28T01:31:30;2.58;;;1.67;;
33844;SDS011;20145;43.118;25.694;2023-07-28T01:33:56;1.92;;;1.38;;
33844;SDS011;20145;43.118;25.694;2023-07-28T01:36:21;1.75;;;1.50;;
33844;SDS011;20145;43.118;25.694;2023-07-28T01:38:47;3.08;;;1.60;;
33844;SDS011;20145;43.118;25.694;2023-07-28T01:41:13;2.10;;;1.50;;
33844;SDS011;20145;43.118;25.694;2023-07-28T01:43:38;2.83;;;1.85;;
33844;SDS011;20145;43.118;25.694;2023-07-28T01:46:04;2.15;;;1.52;;
33844;SDS011;20145;43.118;25.694;2023-07-28T01:48:29;1.92;;;1.75;;
33844;SDS011;20145;43.118;25.694;2023-07-28T01:50:55;2.63;;;1.60;;
33844;SDS011;20145;43.118;25.694;2023-07-28T01:53:20;5.95;;;1.90;;
33844;SDS011;20145;43.118;25.694;2023-07-28T01:55:46;3.78;;;1.95;;
33844;SDS011;20145;43.118;25.694;2023-07-28T01:58:12;5.30;;;1.90;;
33844;SDS011;20145;43.118;25.694;2023-07-28T02:00:37;2.67;;;1.67;;
33844;SDS011;20145;43.118;25.694;2023-07-28T02:03:03;2.13;;;1.83;;
33844;SDS011;20145;43.118;25.694;2023-07-28T02:05:29;2.30;;;1.80;;
33844;SDS011;20145;43.118;25.694;2023-07-28T02:07:55;5.38;;;1.90;;
33844;SDS011;20145;43.118;25.694;2023-07-28T02:10:22;2.55;;;2.20;;
33844;SDS011;20145;43.118;25.694;2023-07-28T02:12:48;4.75;;;2.05;;
33844;SDS011;20145;43.118;25.694;2023-07-28T02:15:15;4.78;;;2.00;;
33844;SDS011;20145;43.118;25.694;2023-07-28T02:17:41;2.03;;;1.80;;
33844;SDS011;20145;43.118;25.694;2023-07-28T02:20:06;2.90;;;1.80;;
33844;SDS011;20145;43.118;25.694;2023-07-28T02:22:36;3.38;;;1.65;;
33844;SDS011;20145;43.118;25.694;2023-07-28T02:25:01;3.08;;;2.30;;
33844;SDS011;20145;43.118;25.694;2023-07-28T02:27:27;4.43;;;1.85;;
33844;SDS011;20145;43.118;25.694;2023-07-28T02:29:54;4.22;;;1.70;;
33844;SDS011;20145;43.118;25.694;2023-07-28T02:32:19;3.75;;;2.15;;
33844;SDS011;20145;43.118;25.694;2023-07-28T02:34:45;1.92;;;1.55;;
33844;SDS011;20145;43.118;25.694;2023-07-28T02:37:11;2.78;;;2.05;;
33844;SDS011;20145;43.118;25.694;2023-07-28T02:39:36;3.88;;;1.75;;
33844;SDS011;20145;43.118;25.694;2023-07-28T02:42:02;2.65;;;2.00;;
33844;SDS011;20145;43.118;25.694;2023-07-28T02:44:28;2.45;;;1.90;;
33844;SDS011;20145;43.118;25.694;2023-07-28T02:46:53;3.08;;;2.22;;
33844;SDS011;20145;43.118;25.694;2023-07-28T02:49:19;2.58;;;1.90;;
33844;SDS011;20145;43.118;25.694;2023-07-28T02:51:44;2.22;;;1.77;;
33844;SDS011;20145;43.118;25.694;2023-07-28T02:54:10;4.22;;;2.10;;
33844;SDS011;20145;43.118;25.694;2023-07-28T02:56:36;4.35;;;2.05;;
33844;SDS011;20145;43.118;25.694;2023-07-28T02:59:03;3.42;;;2.53;;
33844;SDS011;20145;43.118;25.694;2023-07-28T03:01:29;4.55;;;2.88;;
33844;SDS011;20145;43.118;25.694;2023-07-28T03:04:02;3.83;;;2.73;;
33844;SDS011;20145;43.118;25.694;2023-07-28T03:06:29;3.10;;;2.80;;
33844;SDS011;20145;43.118;25.694;2023-07-28T03:08:54;3.03;;;2.33;;
33844;SDS011;20145;43.118;25.694;2023-07-28T03:11:20;4.07;;;2.70;;
33844;SDS011;20145;43.118;25.694;2023-07-28T03:13:45;2.22;;;2.03;;
33844;SDS011;20145;43.118;25.694;2023-07-28T03:16:11;2.55;;;2.08;;
33844;SDS011;20145;43.118;25.694;2023-07-28T03:18:37;3.25;;;2.22;;
33844;SDS011;20145;43.118;25.694;2023-07-28T03:21:02;3.08;;;2.20;;
33844;SDS011;20145;43.118;25.694;2023-07-28T03:23:28;4.43;;;2.50;;
33844;SDS011;20145;43.118;25.694;2023-07-28T03:25:54;2.40;;;2.03;;
33844;SDS011;20145;43.118;25.694;2023-07-28T03:28:19;2.92;;;2.60;;
33844;SDS011;20145;43.118;25.694;2023-07-28T03:30:45;3.00;;;2.28;;
33844;SDS011;20145;43.118;25.694;2023-07-28T03:33:11;4.55;;;2.47;;
33844;SDS011;20145;43.118;25.694;2023-07-28T03:35:36;4.47;;;2.13;;
33844;SDS011;20145;43.118;25.694;2023-07-28T03:38:02;5.35;;;2.50;;
33844;SDS011;20145;43.118;25.694;2023-07-28T03:40:28;4.35;;;2.42;;
33844;SDS011;20145;43.118;25.694;2023-07-28T03:42:53;6.15;;;2.17;;
33844;SDS011;20145;43.118;25.694;2023-07-28T03:45:19;4.45;;;2.10;;
33844;SDS011;20145;43.118;25.694;2023-07-28T03:47:44;4.35;;;1.88;;
33844;SDS011;20145;43.118;25.694;2023-07-28T03:50:10;5.57;;;2.10;;
33844;SDS011;20145;43.118;25.694;2023-07-28T03:52:36;3.45;;;2.08;;
33844;SDS011;20145;43.118;25.694;2023-07-28T03:55:01;3.70;;;2.03;;
33844;SDS011;20145;43.118;25.694;2023-07-28T03:57:27;3.88;;;2.53;;
33844;SDS011;20145;43.118;25.694;2023-07-28T03:59:53;3.45;;;1.95;;
33844;SDS011;20145;43.118;25.694;2023-07-28T04:02:18;4.82;;;3.08;;
33844;SDS011;20145;43.118;25.694;2023-07-28T04:04:44;12.55;;;2.67;;
33844;SDS011;20145;43.118;25.694;2023-07-28T04:07:09;6.03;;;3.00;;
33844;SDS011;20145;43.118;25.694;2023-07-28T04:09:35;2.65;;;2.30;;
33844;SDS011;20145;43.118;25.694;2023-07-28T04:12:00;2.58;;;1.90;;
33844;SDS011;20145;43.118;25.694;2023-07-28T04:14:26;2.25;;;1.95;;
33844;SDS011;20145;43.118;25.694;2023-07-28T04:16:51;7.18;;;3.22;;
33844;SDS011;20145;43.118;25.694;2023-07-28T04:19:17;2.55;;;1.50;;
33844;SDS011;20145;43.118;25.694;2023-07-28T04:21:42;4.07;;;2.15;;
33844;SDS011;20145;43.118;25.694;2023-07-28T04:24:08;4.82;;;2.95;;
33844;SDS011;20145;43.118;25.694;2023-07-28T04:26:35;7.00;;;2.78;;
33844;SDS011;20145;43.118;25.694;2023-07-28T04:29:01;6.82;;;3.08;;
33844;SDS011;20145;43.118;25.694;2023-07-28T04:31:26;5.25;;;2.72;;
33844;SDS011;20145;43.118;25.694;2023-07-28T04:33:52;8.65;;;2.95;;
33844;SDS011;20145;43.118;25.694;2023-07-28T04:36:17;4.53;;;2.38;;
33844;SDS011;20145;43.118;25.694;2023-07-28T04:38:43;8.48;;;3.53;;
33844;SDS011;20145;43.118;25.694;2023-07-28T04:41:09;2.17;;;1.55;;
33844;SDS011;20145;43.118;25.694;2023-07-28T04:43:34;3.50;;;2.33;;
33844;SDS011;20145;43.118;25.694;2023-07-28T04:46:00;3.15;;;1.92;;
33844;SDS011;20145;43.118;25.694;2023-07-28T04:48:26;5.82;;;2.00;;
33844;SDS011;20145;43.118;25.694;2023-07-28T04:50:52;3.53;;;2.20;;
33844;SDS011;20145;43.118;25.694;2023-07-28T04:53:17;3.33;;;2.00;;
33844;SDS011;20145;43.118;25.694;2023-07-28T04:55:43;10.48;;;2.00;;
33844;SDS011;20145;43.118;25.694;2023-07-28T04:58:08;6.65;;;1.88;;
33844;SDS011;20145;43.118;25.694;2023-07-28T05:00:34;2.65;;;2.15;;
33844;SDS011;20145;43.118;25.694;2023-07-28T05:02:59;3.75;;;1.85;;
33844;SDS011;20145;43.118;25.694;2023-07-28T05:05:25;2.33;;;1.70;;
33844;SDS011;20145;43.118;25.694;2023-07-28T05:07:51;4.80;;;1.60;;
33844;SDS011;20145;43.118;25.694;2023-07-28T05:10:16;2.90;;;1.70;;
33844;SDS011;20145;43.118;25.694;2023-07-28T05:12:42;4.22;;;1.38;;
33844;SDS011;20145;43.118;25.694;2023-07-28T05:15:07;3.95;;;1.65;;
33844;SDS011;20145;43.118;25.694;2023-07-28T05:17:36;2.35;;;1.70;;
33844;SDS011;20145;43.118;25.694;2023-07-28T05:20:02;3.15;;;1.80;;
33844;SDS011;20145;43.118;25.694;2023-07-28T05:22:28;2.03;;;1.80;;
33844;SDS011;20145;43.118;25.694;2023-07-28T05:24:54;2.55;;;1.67;;
33844;SDS011;20145;43.118;25.694;2023-07-28T05:27:19;2.00;;;1.70;;
33844;SDS011;20145;43.118;25.694;2023-07-28T05:29:45;2.70;;;1.80;;
33844;SDS011;20145;43.118;25.694;2023-07-28T05:32:10;2.72;;;1.90;;
33844;SDS011;20145;43.118;25.694;2023-07-28T05:34:36;6.80;;;2.15;;
33844;SDS011;20145;43.118;25.694;2023-07-28T05:37:02;5.78;;;2.10;;
33844;SDS011;20145;43.118;25.694;2023-07-28T05:39:28;6.47;;;1.75;;
33844;SDS011;20145;43.118;25.694;2023-07-28T05:41:53;4.38;;;1.90;;
33844;SDS011;20145;43.118;25.694;2023-07-28T05:44:19;4.15;;;2.10;;
33844;SDS011;20145;43.118;25.694;2023-07-28T05:46:44;4.28;;;2.10;;
33844;SDS011;20145;43.118;25.694;2023-07-28T05:49:11;4.18;;;1.90;;
33844;SDS011;20145;43.118;25.694;2023-07-28T05:51:36;4.35;;;1.80;;
33844;SDS011;20145;43.118;25.694;2023-07-28T05:54:02;16.10;;;2.47;;
33844;SDS011;20145;43.118;25.694;2023-07-28T05:56:27;5.05;;;1.60;;
33844;SDS011;20145;43.118;25.694;2023-07-28T05:58:53;5.43;;;1.70;;
33844;SDS011;20145;43.118;25.694;2023-07-28T06:01:20;3.90;;;1.65;;
33844;SDS011;20145;43.118;25.694;2023-07-28T06:03:45;3.35;;;1.60;;
33844;SDS011;20145;43.118;25.694;2023-07-28T06:06:11;3.05;;;1.75;;
33844;SDS011;20145;43.118;25.694;2023-07-28T06:08:37;8.30;;;1.95;;
33844;SDS011;20145;43.118;25.694;2023-07-28T06:11:03;2.65;;;1.70;;
33844;SDS011;20145;43.118;25.694;2023-07-28T06:13:30;4.40;;;2.00;;
33844;SDS011;20145;43.118;25.694;2023-07-28T06:15:56;1.77;;;1.60;;
33844;SDS011;20145;43.118;25.694;2023-07-28T06:18:23;2.88;;;1.83;;
33844;SDS011;20145;43.118;25.694;2023-07-28T06:20:49;4.57;;;1.70;;
33844;SDS011;20145;43.118;25.694;2023-07-28T06:23:14;3.45;;;1.80;;
33844;SDS011;20145;43.118;25.694;2023-07-28T06:25:40;3.90;;;1.58;;
33844;SDS011;20145;43.118;25.694;2023-07-28T06:28:09;2.15;;;1.70;;
33844;SDS011;20145;43.118;25.694;2023-07-28T06:30:36;2.92;;;2.00;;
33844;SDS011;20145;43.118;25.694;2023-07-28T06:33:03;5.28;;;2.00;;
33844;SDS011;20145;43.118;25.694;2023-07-28T06:35:31;4.22;;;1.63;;
33844;SDS011;20145;43.118;25.694;2023-07-28T06:37:57;2.20;;;1.45;;
33844;SDS011;20145;43.118;25.694;2023-07-28T06:40:23;4.45;;;2.50;;
33844;SDS011;20145;43.118;25.694;2023-07-28T06:42:48;3.85;;;1.88;;
33844;SDS011;20145;43.118;25.694;2023-07-28T06:45:14;2.03;;;1.52;;
33844;SDS011;20145;43.118;25.694;2023-07-28T06:47:39;2.88;;;1.83;;
33844;SDS011;20145;43.118;25.694;2023-07-28T06:50:05;3.35;;;1.73;;
33844;SDS011;20145;43.118;25.694;2023-07-28T06:52:31;2.28;;;1.88;;
33844;SDS011;20145;43.118;25.694;2023-07-28T06:54:57;2.38;;;1.55;;
33844;SDS011;20145;43.118;25.694;2023-07-28T06:57:22;2.40;;;1.50;;
33844;SDS011;20145;43.118;25.694;2023-07-28T06:59:48;1.40;;;1.30;;
33844;SDS011;20145;43.118;25.694;2023-07-28T07:02:14;4.63;;;1.88;;
33844;SDS011;20145;43.118;25.694;2023-07-28T07:04:41;2.63;;;1.48;;
33844;SDS011;20145;43.118;25.694;2023-07-28T07:07:06;3.90;;;1.52;;
33844;SDS011;20145;43.118;25.694;2023-07-28T07:09:32;4.47;;;1.70;;
33844;SDS011;20145;43.118;25.694;2023-07-28T07:11:58;3.38;;;1.50;;
33844;SDS011;20145;43.118;25.694;2023-07-28T07:14:23;2.35;;;1.40;;
33844;SDS011;20145;43.118;25.694;2023-07-28T07:16:49;3.15;;;1.58;;
33844;SDS011;20145;43.118;25.694;2023-07-28T07:19:14;3.50;;;1.95;;
33844;SDS011;20145;43.118;25.694;2023-07-28T07:21:40;3.47;;;1.67;;
33844;SDS011;20145;43.118;25.694;2023-07-28T07:24:07;2.33;;;1.52;;
33844;SDS011;20145;43.118;25.694;2023-07-28T07:26:33;3.08;;;1.45;;
33844;SDS011;20145;43.118;25.694;2023-07-28T07:28:58;7.20;;;2.15;;
33844;SDS011;20145;43.118;25.694;2023-07-28T07:31:24;1.70;;;1.52;;
33844;SDS011;20145;43.118;25.694;2023-07-28T07:33:50;3.40;;;1.92;;
33844;SDS011;20145;43.118;25.694;2023-07-28T07:36:16;4.03;;;2.25;;
33844;SDS011;20145;43.118;25.694;2023-07-28T07:38:43;5.78;;;2.22;;
33844;SDS011;20145;43.118;25.694;2023-07-28T07:41:12;5.63;;;1.75;;
33844;SDS011;20145;43.118;25.694;2023-07-28T07:43:41;5.88;;;1.88;;
33844;SDS011;20145;43.118;25.694;2023-07-28T07:46:06;4.25;;;1.40;;
33844;SDS011;20145;43.118;25.694;2023-07-28T07:48:32;1.40;;;1.30;;
33844;SDS011;20145;43.118;25.694;2023-07-28T07:50:58;7.50;;;2.00;;
33844;SDS011;20145;43.118;25.694;2023-07-28T07:53:23;3.58;;;1.40;;
33844;SDS011;20145;43.118;25.694;2023-07-28T07:55:49;4.60;;;2.08;;
33844;SDS011;20145;43.118;25.694;2023-07-28T07:58:15;2.65;;;1.65;;
33844;SDS011;20145;43.118;25.694;2023-07-28T08:00:40;4.68;;;1.85;;
33844;SDS011;20145;43.118;25.694;2023-07-28T08:03:06;1.80;;;1.33;;
33844;SDS011;20145;43.118;25.694;2023-07-28T08:05:31;9.15;;;1.80;;
33844;SDS011;20145;43.118;25.694;2023-07-28T08:07:57;3.20;;;1.52;;
33844;SDS011;20145;43.118;25.694;2023-07-28T08:10:23;6.22;;;1.27;;
33844;SDS011;20145;43.118;25.694;2023-07-28T08:12:49;2.60;;;1.42;;
33844;SDS011;20145;43.118;25.694;2023-07-28T08:15:14;3.20;;;1.80;;
33844;SDS011;20145;43.118;25.694;2023-07-28T08:17:40;1.80;;;1.60;;
33844;SDS011;20145;43.118;25.694;2023-07-28T08:20:06;3.75;;;3.10;;
33844;SDS011;20145;43.118;25.694;2023-07-28T08:22:33;3.80;;;2.08;;
33844;SDS011;20145;43.118;25.694;2023-07-28T08:24:59;2.03;;;1.23;;
33844;SDS011;20145;43.118;25.694;2023-07-28T08:27:24;3.70;;;1.70;;
33844;SDS011;20145;43.118;25.694;2023-07-28T08:29:50;2.40;;;1.45;;
33844;SDS011;20145;43.118;25.694;2023-07-28T08:32:15;2.70;;;1.45;;
33844;SDS011;20145;43.118;25.694;2023-07-28T08:34:41;7.00;;;1.95;;
33844;SDS011;20145;43.118;25.694;2023-07-28T08:37:07;3.88;;;1.30;;
33844;SDS011;20145;43.118;25.694;2023-07-28T08:39:33;1.70;;;1.40;;
33844;SDS011;20145;43.118;25.694;2023-07-28T08:42:01;3.83;;;1.73;;
33844;SDS011;20145;43.118;25.694;2023-07-28T08:44:32;3.60;;;1.65;;
33844;SDS011;20145;43.118;25.694;2023-07-28T08:46:59;2.10;;;1.48;;
33844;SDS011;20145;43.118;25.694;2023-07-28T08:49:25;1.35;;;0.80;;
33844;SDS011;20145;43.118;25.694;2023-07-28T08:51:52;2.97;;;1.20;;
33844;SDS011;20145;43.118;25.694;2023-07-28T08:54:23;2.85;;;1.88;;
33844;SDS011;20145;43.118;25.694;2023-07-28T08:56:48;1.42;;;1.33;;
33844;SDS011;20145;43.118;25.694;2023-07-28T08:59:20;2.88;;;1.70;;
33844;SDS011;20145;43.118;25.694;2023-07-28T09:01:49;3.90;;;1.20;;
33844;SDS011;20145;43.118;25.694;2023-07-28T09:04:15;1.10;;;1.00;;
33844;SDS011;20145;43.118;25.694;2023-07-28T09:06:44;2.38;;;1.20;;
33844;SDS011;20145;43.118;25.694;2023-07-28T09:09:10;1.90;;;1.35;;
33844;SDS011;20145;43.118;25.694;2023-07-28T09:11:53;2.45;;;1.40;;
33844;SDS011;20145;43.118;25.694;2023-07-28T09:14:20;3.03;;;1.50;;
33844;SDS011;20145;43.118;25.694;2023-07-28T09:16:47;3.25;;;1.50;;
33844;SDS011;20145;43.118;25.694;2023-07-28T09:19:13;3.45;;;1.73;;
33844;SDS011;20145;43.118;25.694;2023-07-28T09:21:39;2.20;;;1.83;;
33844;SDS011;20145;43.118;25.694;2023-07-28T09:24:09;2.28;;;1.65;;
33844;SDS011;20145;43.118;25.694;2023-07-28T09:26:42;2.60;;;1.70;;
33844;SDS011;20145;43.118;25.694;2023-07-28T09:29:14;2.65;;;1.20;;
33844;SDS011;20145;43.118;25.694;2023-07-28T09:31:45;2.65;;;1.45;;
33844;SDS011;20145;43.118;25.694;2023-07-28T09:34:26;2.85;;;2.00;;
33844;SDS011;20145;43.118;25.694;2023-07-28T09:36:53;2.42;;;1.95;;
33844;SDS011;20145;43.118;25.694;2023-07-28T09:39:19;4.68;;;1.70;;
33844;SDS011;20145;43.118;25.694;2023-07-28T09:41:46;3.28;;;1.60;;
33844;SDS011;20145;43.118;25.694;2023-07-28T09:44:11;2.45;;;1.40;;
33844;SDS011;20145;43.118;25.694;2023-07-28T09:46:37;4.25;;;1.95;;
33844;SDS011;20145;43.118;25.694;2023-07-28T09:49:15;5.22;;;1.70;;
33844;SDS011;20145;43.118;25.694;2023-07-28T09:51:48;2.63;;;1.27;;
33844;SDS011;20145;43.118;25.694;2023-07-28T09:54:20;1.65;;;1.50;;
33844;SDS011;20145;43.118;25.694;2023-07-28T09:56:54;4.22;;;1.70;;
33844;SDS011;20145;43.118;25.694;2023-07-28T09:59:26;4.15;;;1.50;;
33844;SDS011;20145;43.118;25.694;2023-07-28T10:01:55;3.13;;;2.03;;
33844;SDS011;20145;43.118;25.694;2023-07-28T10:04:23;3.72;;;1.65;;
33844;SDS011;20145;43.118;25.694;2023-07-28T10:06:49;3.55;;;1.45;;
33844;SDS011;20145;43.118;25.694;2023-07-28T10:09:16;4.88;;;1.52;;
33844;SDS011;20145;43.118;25.694;2023-07-28T10:11:42;6.10;;;1.45;;
33844;SDS011;20145;43.118;25.694;2023-07-28T10:14:08;2.22;;;1.40;;
33844;SDS011;20145;43.118;25.694;2023-07-28T10:16:39;3.28;;;1.90;;
33844;SDS011;20145;43.118;25.694;2023-07-28T10:19:05;1.98;;;1.63;;
33844;SDS011;20145;43.118;25.694;2023-07-28T10:21:31;5.20;;;1.63;;
33844;SDS011;20145;43.118;25.694;2023-07-28T10:24:00;2.67;;;1.60;;
33844;SDS011;20145;43.118;25.694;2023-07-28T10:26:35;4.72;;;1.20;;
33844;SDS011;20145;43.118;25.694;2023-07-28T10:29:07;3.08;;;1.60;;
33844;SDS011;20145;43.118;25.694;2023-07-28T10:31:36;5.03;;;1.67;;
33844;SDS011;20145;43.118;25.694;2023-07-28T10:34:02;2.85;;;1.45;;
33844;SDS011;20145;43.118;25.694;2023-07-28T10:39:01;2.55;;;1.42;;
33844;SDS011;20145;43.118;25.694;2023-07-28T10:41:29;2.55;;;1.20;;
33844;SDS011;20145;43.118;25.694;2023-07-28T10:43:58;2.25;;;1.30;;
33844;SDS011;20145;43.118;25.694;2023-07-28T10:46:23;3.63;;;1.17;;
33844;SDS011;20145;43.118;25.694;2023-07-28T10:48:49;2.85;;;1.23;;
33844;SDS011;20145;43.118;25.694;2023-07-28T10:51:27;3.03;;;1.33;;
33844;SDS011;20145;43.118;25.694;2023-07-28T10:53:59;1.75;;;1.20;;
33844;SDS011;20145;43.118;25.694;2023-07-28T10:56:25;3.25;;;1.20;;
33844;SDS011;20145;43.118;25.694;2023-07-28T10:59:01;2.70;;;1.00;;
33844;SDS011;20145;43.118;25.694;2023-07-28T11:01:36;1.60;;;1.13;;
33844;SDS011;20145;43.118;25.694;2023-07-28T11:04:21;2.35;;;1.17;;
33844;SDS011;20145;43.118;25.694;2023-07-28T11:06:49;4.10;;;1.40;;
33844;SDS011;20145;43.118;25.694;2023-07-28T11:09:17;1.15;;;1.00;;
33844;SDS011;20145;43.118;25.694;2023-07-28T11:11:44;1.48;;;1.13;;
33844;SDS011;20145;43.118;25.694;2023-07-28T11:14:10;1.77;;;1.20;;
33844;SDS011;20145;43.118;25.694;2023-07-28T11:16:36;4.57;;;1.20;;
33844;SDS011;20145;43.118;25.694;2023-07-28T11:19:10;1.08;;;0.90;;
33844;SDS011;20145;43.118;25.694;2023-07-28T11:21:40;1.20;;;1.00;;
33844;SDS011;20145;43.118;25.694;2023-07-28T11:24:07;2.80;;;1.00;;
33844;SDS011;20145;43.118;25.694;2023-07-28T11:26:34;1.77;;;0.82;;
33844;SDS011;20145;43.118;25.694;2023-07-28T11:29:01;1.02;;;0.90;;
33844;SDS011;20145;43.118;25.694;2023-07-28T11:31:26;1.13;;;0.70;;
33844;SDS011;20145;43.118;25.694;2023-07-28T11:33:52;1.50;;;0.80;;
33844;SDS011;20145;43.118;25.694;2023-07-28T11:36:28;2.10;;;1.48;;
33844;SDS011;20145;43.118;25.694;2023-07-28T11:38:55;1.17;;;1.08;;
33844;SDS011;20145;43.118;25.694;2023-07-28T11:41:23;3.22;;;1.35;;
33844;SDS011;20145;43.118;25.694;2023-07-28T11:43:51;2.30;;;1.25;;
33844;SDS011;20145;43.118;25.694;2023-07-28T11:51:47;3.85;;;1.25;;
33844;SDS011;20145;43.118;25.694;2023-07-28T11:54:17;2.72;;;1.10;;
33844;SDS011;20145;43.118;25.694;2023-07-28T11:56:47;2.27;;;1.27;;
33844;SDS011;20145;43.118;25.694;2023-07-28T11:59:18;1.27;;;1.08;;
33844;SDS011;20145;43.118;25.694;2023-07-28T12:01:51;3.25;;;0.98;;
33844;SDS011;20145;43.118;25.694;2023-07-28T12:04:24;2.85;;;1.08;;
33844;SDS011;20145;43.118;25.694;2023-07-28T12:12:28;2.95;;;1.20;;
33844;SDS011;20145;43.118;25.694;2023-07-28T12:14:56;3.00;;;1.10;;
33844;SDS011;20145;43.118;25.694;2023-07-28T12:17:29;1.45;;;1.15;;
33844;SDS011;20145;43.118;25.694;2023-07-28T12:22:25;2.08;;;1.17;;
33844;SDS011;20145;43.118;25.694;2023-07-28T12:24:51;6.93;;;1.48;;
33844;SDS011;20145;43.118;25.694;2023-07-28T12:27:16;2.08;;;1.35;;
33844;SDS011;20145;43.118;25.694;2023-07-28T12:29:42;1.58;;;1.05;;
33844;SDS011;20145;43.118;25.694;2023-07-28T12:32:07;6.00;;;1.15;;
33844;SDS011;20145;43.118;25.694;2023-07-28T12:34:33;2.30;;;1.48;;
33844;SDS011;20145;43.118;25.694;2023-07-28T12:36:59;4.68;;;1.08;;
33844;SDS011;20145;43.118;25.694;2023-07-28T12:39:25;2.63;;;1.15;;
33844;SDS011;20145;43.118;25.694;2023-07-28T12:41:50;1.98;;;1.60;;
33844;SDS011;20145;43.118;25.694;2023-07-28T12:44:19;2.08;;;1.25;;
33844;SDS011;20145;43.118;25.694;2023-07-28T12:46:45;4.28;;;1.38;;
33844;SDS011;20145;43.118;25.694;2023-07-28T12:49:10;1.30;;;1.10;;
33844;SDS011;20145;43.118;25.694;2023-07-28T12:51:36;3.58;;;1.45;;
33844;SDS011;20145;43.118;25.694;2023-07-28T12:54:02;1.63;;;1.10;;
33844;SDS011;20145;43.118;25.694;2023-07-28T12:56:28;2.75;;;1.45;;
33844;SDS011;20145;43.118;25.694;2023-07-28T12:58:54;1.65;;;1.48;;
33844;SDS011;20145;43.118;25.694;2023-07-28T13:01:19;1.52;;;1.10;;
33844;SDS011;20145;43.118;25.694;2023-07-28T13:03:45;3.40;;;1.30;;
33844;SDS011;20145;43.118;25.694;2023-07-28T13:06:11;2.50;;;1.25;;
33844;SDS011;20145;43.118;25.694;2023-07-28T13:08:36;2.85;;;1.70;;
33844;SDS011;20145;43.118;25.694;2023-07-28T13:11:02;2.65;;;1.40;;
33844;SDS011;20145;43.118;25.694;2023-07-28T13:13:28;2.65;;;1.58;;
33844;SDS011;20145;43.118;25.694;2023-07-28T13:15:55;2.00;;;1.13;;
33844;SDS011;20145;43.118;25.694;2023-07-28T13:18:21;3.25;;;1.08;;
33844;SDS011;20145;43.118;25.694;2023-07-28T13:20:46;1.85;;;0.98;;
33844;SDS011;20145;43.118;25.694;2023-07-28T13:23:12;3.17;;;1.17;;
33844;SDS011;20145;43.118;25.694;2023-07-28T13:25:38;1.83;;;1.15;;
33844;SDS011;20145;43.118;25.694;2023-07-28T13:28:04;3.28;;;0.98;;
33844;SDS011;20145;43.118;25.694;2023-07-28T13:30:29;1.00;;;0.90;;
33844;SDS011;20145;43.118;25.694;2023-07-28T13:32:55;1.75;;;1.42;;
33844;SDS011;20145;43.118;25.694;2023-07-28T13:35:21;1.75;;;1.00;;
33844;SDS011;20145;43.118;25.694;2023-07-28T13:37:47;1.77;;;0.93;;
33844;SDS011;20145;43.118;25.694;2023-07-28T13:40:13;2.17;;;1.20;;
33844;SDS011;20145;43.118;25.694;2023-07-28T13:42:39;2.47;;;1.48;;
33844;SDS011;20145;43.118;25.694;2023-07-28T13:45:05;1.80;;;1.13;;
33844;SDS011;20145;43.118;25.694;2023-07-28T13:47:31;4.43;;;1.27;;
33844;SDS011;20145;43.118;25.694;2023-07-28T13:49:56;3.50;;;2.65;;
33844;SDS011;20145;43.118;25.694;2023-07-28T13:52:22;1.52;;;1.40;;
33844;SDS011;20145;43.118;25.694;2023-07-28T13:54:47;2.22;;;1.30;;
33844;SDS011;20145;43.118;25.694;2023-07-28T13:57:13;2.60;;;1.42;;
33844;SDS011;20145;43.118;25.694;2023-07-28T13:59:39;1.45;;;1.05;;
33844;SDS011;20145;43.118;25.694;2023-07-28T14:02:05;3.10;;;1.58;;
33844;SDS011;20145;43.118;25.694;2023-07-28T14:04:31;12.88;;;2.38;;
33844;SDS011;20145;43.118;25.694;2023-07-28T14:06:56;3.10;;;2.00;;
33844;SDS011;20145;43.118;25.694;2023-07-28T14:09:23;4.25;;;1.83;;
33844;SDS011;20145;43.118;25.694;2023-07-28T14:11:49;2.85;;;1.45;;
33844;SDS011;20145;43.118;25.694;2023-07-28T14:14:14;1.35;;;1.10;;
33844;SDS011;20145;43.118;25.694;2023-07-28T14:16:40;5.32;;;1.60;;
33844;SDS011;20145;43.118;25.694;2023-07-28T14:19:06;3.30;;;2.42;;
33844;SDS011;20145;43.118;25.694;2023-07-28T14:21:31;2.58;;;1.95;;
33844;SDS011;20145;43.118;25.694;2023-07-28T14:23:57;2.70;;;1.65;;
33844;SDS011;20145;43.118;25.694;2023-07-28T14:26:23;2.50;;;1.38;;
33844;SDS011;20145;43.118;25.694;2023-07-28T14:28:49;1.65;;;1.05;;
33844;SDS011;20145;43.118;25.694;2023-07-28T14:31:14;1.90;;;1.60;;
33844;SDS011;20145;43.118;25.694;2023-07-28T14:33:40;2.75;;;1.42;;
33844;SDS011;20145;43.118;25.694;2023-07-28T14:36:05;2.13;;;1.92;;
33844;SDS011;20145;43.118;25.694;2023-07-28T14:38:31;2.78;;;1.60;;
33844;SDS011;20145;43.118;25.694;2023-07-28T14:40:56;2.58;;;1.70;;
33844;SDS011;20145;43.118;25.694;2023-07-28T14:43:22;3.20;;;1.75;;
33844;SDS011;20145;43.118;25.694;2023-07-28T14:45:49;4.30;;;1.67;;
33844;SDS011;20145;43.118;25.694;2023-07-28T14:48:15;2.97;;;1.67;;